Outremont, Canada
Current Conditions -  °F | °C
As of 9:00 AM on Thursday 18 Dec 2014 (Local Time) from CYUL Reporting Station
Light Snow Light Snow  
Wind Chill: 26°   Ceiling: 400
Heat Index: 32°   Visibility: 2mi
Dew Point: 32°   Wind: 7mph
Humidity: 100%   Direction: 300°WNW
Pressure: 29.85"   Gusts: NA
Location:  45.51°N, 73.61°W
Report Text: CYUL 181400Z 30006KT 2SM -SN BR BKN004 OVC012 00/M00 A2985 RMK SF6SF2 SLP110
Loading
Personal Weather Stations






























Interactive Weather Map New forecast layout! Learn more

10-Day Weather Forecast

Advertisements
Track Severe Weather on mobile